Aérodrome :
LOGIN :

S'inscrire | Disclaimer

   EN    FR    IT 

 










Légende :    VFR   VFR Marginal   IFR   IFR Intensif   IFR Très Intensif
Visi : 
Plafond : 
>= 8 km
>= 3000ft
5 à 8 km
1000 à 3000 ft
1500m à 5 km
500 à 1000 ft
800 à 1500m
200 à 500 ft
< 800m
< 200 ft
Symboles :   Orages  Brouillard  Fortes neiges  Fortes précipitations  Vent > 20 kt
SIGMETs :   Divers  Orages  Givrage  Turbulence  Onde Orograph.  Cendres Volcan.






- Altitude de l'aérodrome : 306 ft
- Code IATA : EMA


EGNX - Nottingham East Midlands

DERNIER METAR :
  • 050750Z 18013KT CAVOK 17/11 Q1006

METARs EXPIRÉS :
  • 050720Z 18010KT CAVOK 16/11 Q1006
  • 050650Z 18006KT 150V220 CAVOK 15/11 Q1006
  • 050620Z 18007KT 150V210 CAVOK 14/11 Q1007
  • 050550Z 16007KT CAVOK 13/11 Q1007
  • 050520Z 14006KT CAVOK 12/11 Q1007

TAF TAF EGNX
Valide du 05 à 06h jusqu'au 06 à 06h UTC


050454Z 0506/0606 17010KT 9999 SCT035
TEMPO 0511/0515 6000 RA SHRA
PROB30
TEMPO 0511/0518 18015G25KT
PROB30
TEMPO 0511/0515 4000 +RA BKN014
PROB40
TEMPO 0515/0523 3000 +SHRA BKN008 BKN012CB
PROB40
TEMPO 0523/0606 6000 SHRA BKN008
ATIS : +44 1332 852 852 (ext 3201)



MET'MAP, la Météo Aéronautique d'un coup d'oeil ! - Copyright ORBIFLY Décembre 2007 - Disclaimer

ORBIFLY MET'MAP TEAM :

Programmation & Développement : Alexandra Zaïnal
Sur une idée originale de : Baudouin d'Aumeries
Assistance à la programmation : Marc-Olivier Méhu
Soutien technique & logistique : Manuel Goepfert

Contact : metmap@orbifly.com




SOURCES & CREDITS :

   NOAA